sensor_id;sensor_type;location;lat;lon;timestamp;P1;durP1;ratioP1;P2;durP2;ratioP2
43184;SDS011;28803;52.308;19.096;2023-03-13T00:00:07;6.28;;;2.88;;
43184;SDS011;28803;52.308;19.096;2023-03-13T00:02:56;7.93;;;2.83;;
43184;SDS011;28803;52.308;19.096;2023-03-13T00:05:23;6.28;;;3.38;;
43184;SDS011;28803;52.308;19.096;2023-03-13T00:07:51;7.65;;;2.63;;
43184;SDS011;28803;52.308;19.096;2023-03-13T00:10:18;9.40;;;3.47;;
43184;SDS011;28803;52.308;19.096;2023-03-13T00:12:46;9.48;;;3.17;;
43184;SDS011;28803;52.308;19.096;2023-03-13T00:15:13;8.00;;;3.20;;
43184;SDS011;28803;52.308;19.096;2023-03-13T00:17:42;8.18;;;3.28;;
43184;SDS011;28803;52.308;19.096;2023-03-13T00:20:09;7.90;;;3.40;;
43184;SDS011;28803;52.308;19.096;2023-03-13T00:22:37;9.27;;;3.70;;
43184;SDS011;28803;52.308;19.096;2023-03-13T00:25:05;8.02;;;3.45;;
43184;SDS011;28803;52.308;19.096;2023-03-13T00:27:33;5.93;;;2.75;;
43184;SDS011;28803;52.308;19.096;2023-03-13T00:30:00;7.93;;;3.63;;
43184;SDS011;28803;52.308;19.096;2023-03-13T00:32:28;10.50;;;4.35;;
43184;SDS011;28803;52.308;19.096;2023-03-13T00:34:55;15.18;;;4.38;;
43184;SDS011;28803;52.308;19.096;2023-03-13T00:37:23;8.90;;;3.35;;
43184;SDS011;28803;52.308;19.096;2023-03-13T00:39:51;10.70;;;3.47;;
43184;SDS011;28803;52.308;19.096;2023-03-13T00:42:18;7.25;;;3.42;;
43184;SDS011;28803;52.308;19.096;2023-03-13T00:44:46;9.55;;;3.92;;
43184;SDS011;28803;52.308;19.096;2023-03-13T00:47:13;6.47;;;3.28;;
43184;SDS011;28803;52.308;19.096;2023-03-13T00:49:40;8.23;;;2.80;;
43184;SDS011;28803;52.308;19.096;2023-03-13T00:52:08;11.45;;;3.53;;
43184;SDS011;28803;52.308;19.096;2023-03-13T00:54:35;6.22;;;3.15;;
43184;SDS011;28803;52.308;19.096;2023-03-13T00:57:03;7.38;;;3.30;;
43184;SDS011;28803;52.308;19.096;2023-03-13T00:59:31;8.63;;;3.88;;
43184;SDS011;28803;52.308;19.096;2023-03-13T01:01:58;9.40;;;4.20;;
43184;SDS011;28803;52.308;19.096;2023-03-13T01:04:25;11.85;;;4.22;;
43184;SDS011;28803;52.308;19.096;2023-03-13T01:06:53;9.30;;;4.30;;
43184;SDS011;28803;52.308;19.096;2023-03-13T01:09:21;10.52;;;3.97;;
43184;SDS011;28803;52.308;19.096;2023-03-13T01:11:48;9.13;;;3.80;;
43184;SDS011;28803;52.308;19.096;2023-03-13T01:14:17;6.82;;;3.30;;
43184;SDS011;28803;52.308;19.096;2023-03-13T01:16:45;8.20;;;4.03;;
43184;SDS011;28803;52.308;19.096;2023-03-13T01:19:13;14.13;;;4.43;;
43184;SDS011;28803;52.308;19.096;2023-03-13T01:21:43;11.48;;;4.10;;
43184;SDS011;28803;52.308;19.096;2023-03-13T01:24:11;8.48;;;3.97;;
43184;SDS011;28803;52.308;19.096;2023-03-13T01:26:39;10.93;;;3.42;;
43184;SDS011;28803;52.308;19.096;2023-03-13T01:29:06;11.20;;;4.32;;
43184;SDS011;28803;52.308;19.096;2023-03-13T01:31:34;6.95;;;3.75;;
43184;SDS011;28803;52.308;19.096;2023-03-13T01:34:03;5.32;;;3.33;;
43184;SDS011;28803;52.308;19.096;2023-03-13T01:36:31;7.90;;;4.25;;
43184;SDS011;28803;52.308;19.096;2023-03-13T01:38:59;13.38;;;4.35;;
43184;SDS011;28803;52.308;19.096;2023-03-13T01:41:27;9.07;;;4.63;;
43184;SDS011;28803;52.308;19.096;2023-03-13T01:43:55;8.35;;;4.80;;
43184;SDS011;28803;52.308;19.096;2023-03-13T01:46:24;8.70;;;4.07;;
43184;SDS011;28803;52.308;19.096;2023-03-13T01:48:55;11.20;;;4.90;;
43184;SDS011;28803;52.308;19.096;2023-03-13T01:51:27;9.95;;;4.57;;
43184;SDS011;28803;52.308;19.096;2023-03-13T01:56:31;11.50;;;4.85;;
43184;SDS011;28803;52.308;19.096;2023-03-13T01:59:00;8.18;;;4.88;;
43184;SDS011;28803;52.308;19.096;2023-03-13T02:01:29;11.63;;;4.15;;
43184;SDS011;28803;52.308;19.096;2023-03-13T02:03:56;11.55;;;4.85;;
43184;SDS011;28803;52.308;19.096;2023-03-13T02:06:25;9.13;;;5.53;;
43184;SDS011;28803;52.308;19.096;2023-03-13T02:08:55;7.43;;;4.68;;
43184;SDS011;28803;52.308;19.096;2023-03-13T02:11:34;9.50;;;4.85;;
43184;SDS011;28803;52.308;19.096;2023-03-13T02:14:02;7.85;;;4.45;;
43184;SDS011;28803;52.308;19.096;2023-03-13T02:16:32;10.60;;;5.40;;
43184;SDS011;28803;52.308;19.096;2023-03-13T02:19:01;9.25;;;4.90;;
43184;SDS011;28803;52.308;19.096;2023-03-13T02:21:38;11.25;;;5.63;;
43184;SDS011;28803;52.308;19.096;2023-03-13T02:24:29;8.63;;;5.20;;
43184;SDS011;28803;52.308;19.096;2023-03-13T02:29:27;9.18;;;4.53;;
43184;SDS011;28803;52.308;19.096;2023-03-13T02:31:55;9.45;;;4.97;;
43184;SDS011;28803;52.308;19.096;2023-03-13T02:34:24;10.02;;;5.63;;
43184;SDS011;28803;52.308;19.096;2023-03-13T02:36:52;11.73;;;5.97;;
43184;SDS011;28803;52.308;19.096;2023-03-13T02:39:20;11.65;;;5.28;;
43184;SDS011;28803;52.308;19.096;2023-03-13T02:41:50;15.65;;;5.75;;
43184;SDS011;28803;52.308;19.096;2023-03-13T02:44:18;9.60;;;5.47;;
43184;SDS011;28803;52.308;19.096;2023-03-13T02:46:47;14.85;;;5.95;;
43184;SDS011;28803;52.308;19.096;2023-03-13T02:49:18;13.43;;;6.68;;
43184;SDS011;28803;52.308;19.096;2023-03-13T02:51:46;12.63;;;6.03;;
43184;SDS011;28803;52.308;19.096;2023-03-13T02:54:24;13.70;;;5.68;;
43184;SDS011;28803;52.308;19.096;2023-03-13T02:56:54;11.77;;;6.18;;
43184;SDS011;28803;52.308;19.096;2023-03-13T02:59:23;9.73;;;5.60;;
43184;SDS011;28803;52.308;19.096;2023-03-13T03:01:51;11.88;;;7.15;;
43184;SDS011;28803;52.308;19.096;2023-03-13T03:04:19;11.70;;;5.82;;
43184;SDS011;28803;52.308;19.096;2023-03-13T03:06:47;13.25;;;6.63;;
43184;SDS011;28803;52.308;19.096;2023-03-13T03:09:16;11.32;;;6.65;;
43184;SDS011;28803;52.308;19.096;2023-03-13T03:11:44;12.57;;;6.78;;
43184;SDS011;28803;52.308;19.096;2023-03-13T03:14:11;11.40;;;6.57;;
43184;SDS011;28803;52.308;19.096;2023-03-13T03:16:39;11.60;;;6.50;;
43184;SDS011;28803;52.308;19.096;2023-03-13T03:19:06;12.30;;;7.07;;
43184;SDS011;28803;52.308;19.096;2023-03-13T03:21:34;15.32;;;7.40;;
43184;SDS011;28803;52.308;19.096;2023-03-13T03:24:01;16.88;;;7.80;;
43184;SDS011;28803;52.308;19.096;2023-03-13T03:26:29;14.35;;;7.07;;
43184;SDS011;28803;52.308;19.096;2023-03-13T03:28:56;13.23;;;7.35;;
43184;SDS011;28803;52.308;19.096;2023-03-13T03:31:24;13.68;;;6.88;;
43184;SDS011;28803;52.308;19.096;2023-03-13T03:33:51;15.43;;;8.40;;
43184;SDS011;28803;52.308;19.096;2023-03-13T03:36:20;9.63;;;6.53;;
43184;SDS011;28803;52.308;19.096;2023-03-13T03:38:48;11.68;;;6.72;;
43184;SDS011;28803;52.308;19.096;2023-03-13T03:41:16;13.82;;;7.82;;
43184;SDS011;28803;52.308;19.096;2023-03-13T03:43:44;14.05;;;8.32;;
43184;SDS011;28803;52.308;19.096;2023-03-13T03:46:13;14.80;;;8.88;;
43184;SDS011;28803;52.308;19.096;2023-03-13T03:48:41;14.52;;;8.63;;
43184;SDS011;28803;52.308;19.096;2023-03-13T03:51:09;14.70;;;6.95;;
43184;SDS011;28803;52.308;19.096;2023-03-13T03:53:36;19.77;;;8.75;;
43184;SDS011;28803;52.308;19.096;2023-03-13T03:56:05;17.23;;;8.57;;
43184;SDS011;28803;52.308;19.096;2023-03-13T03:58:32;12.95;;;6.90;;
43184;SDS011;28803;52.308;19.096;2023-03-13T04:01:00;14.82;;;8.85;;
43184;SDS011;28803;52.308;19.096;2023-03-13T04:03:27;15.90;;;8.13;;
43184;SDS011;28803;52.308;19.096;2023-03-13T04:05:56;14.82;;;8.18;;
43184;SDS011;28803;52.308;19.096;2023-03-13T04:08:23;19.25;;;8.02;;
43184;SDS011;28803;52.308;19.096;2023-03-13T04:10:51;17.73;;;8.02;;
43184;SDS011;28803;52.308;19.096;2023-03-13T04:13:18;14.93;;;8.35;;
43184;SDS011;28803;52.308;19.096;2023-03-13T04:15:46;16.17;;;8.60;;
43184;SDS011;28803;52.308;19.096;2023-03-13T04:18:14;19.35;;;9.02;;
43184;SDS011;28803;52.308;19.096;2023-03-13T04:20:42;14.10;;;8.07;;
43184;SDS011;28803;52.308;19.096;2023-03-13T04:23:09;16.05;;;8.10;;
43184;SDS011;28803;52.308;19.096;2023-03-13T04:25:37;16.58;;;8.02;;
43184;SDS011;28803;52.308;19.096;2023-03-13T04:28:05;13.57;;;8.55;;
43184;SDS011;28803;52.308;19.096;2023-03-13T04:30:32;14.40;;;7.93;;
43184;SDS011;28803;52.308;19.096;2023-03-13T04:32:59;16.85;;;8.88;;
43184;SDS011;28803;52.308;19.096;2023-03-13T04:35:27;16.50;;;7.53;;
43184;SDS011;28803;52.308;19.096;2023-03-13T04:37:54;20.98;;;9.07;;
43184;SDS011;28803;52.308;19.096;2023-03-13T04:40:22;20.27;;;9.05;;
43184;SDS011;28803;52.308;19.096;2023-03-13T04:42:50;15.93;;;8.43;;
43184;SDS011;28803;52.308;19.096;2023-03-13T04:45:17;16.73;;;8.15;;
43184;SDS011;28803;52.308;19.096;2023-03-13T04:47:45;13.57;;;8.18;;
43184;SDS011;28803;52.308;19.096;2023-03-13T04:50:13;18.00;;;8.48;;
43184;SDS011;28803;52.308;19.096;2023-03-13T04:52:40;14.95;;;8.07;;
43184;SDS011;28803;52.308;19.096;2023-03-13T04:55:08;16.52;;;8.80;;
43184;SDS011;28803;52.308;19.096;2023-03-13T04:57:35;15.00;;;8.40;;
43184;SDS011;28803;52.308;19.096;2023-03-13T05:00:04;13.70;;;8.23;;
43184;SDS011;28803;52.308;19.096;2023-03-13T05:02:33;16.77;;;8.77;;
43184;SDS011;28803;52.308;19.096;2023-03-13T05:05:00;14.32;;;7.78;;
43184;SDS011;28803;52.308;19.096;2023-03-13T05:07:28;14.00;;;7.05;;
43184;SDS011;28803;52.308;19.096;2023-03-13T05:09:55;12.57;;;7.88;;
43184;SDS011;28803;52.308;19.096;2023-03-13T05:12:23;18.80;;;8.45;;
43184;SDS011;28803;52.308;19.096;2023-03-13T05:14:50;13.57;;;6.82;;
43184;SDS011;28803;52.308;19.096;2023-03-13T05:17:19;18.98;;;8.20;;
43184;SDS011;28803;52.308;19.096;2023-03-13T05:19:46;14.35;;;7.90;;
43184;SDS011;28803;52.308;19.096;2023-03-13T05:22:14;15.73;;;7.82;;
43184;SDS011;28803;52.308;19.096;2023-03-13T05:24:41;16.95;;;8.55;;
43184;SDS011;28803;52.308;19.096;2023-03-13T05:27:09;16.92;;;7.80;;
43184;SDS011;28803;52.308;19.096;2023-03-13T05:29:36;20.27;;;7.82;;
43184;SDS011;28803;52.308;19.096;2023-03-13T05:32:04;14.48;;;8.20;;
43184;SDS011;28803;52.308;19.096;2023-03-13T05:34:32;15.77;;;8.55;;
43184;SDS011;28803;52.308;19.096;2023-03-13T05:37:00;14.30;;;8.05;;
43184;SDS011;28803;52.308;19.096;2023-03-13T05:39:27;15.00;;;8.43;;
43184;SDS011;28803;52.308;19.096;2023-03-13T05:41:55;18.75;;;8.43;;
43184;SDS011;28803;52.308;19.096;2023-03-13T05:44:22;15.27;;;7.88;;
43184;SDS011;28803;52.308;19.096;2023-03-13T05:46:50;15.65;;;7.57;;
43184;SDS011;28803;52.308;19.096;2023-03-13T05:49:18;18.60;;;8.90;;
43184;SDS011;28803;52.308;19.096;2023-03-13T05:51:45;15.15;;;8.48;;
43184;SDS011;28803;52.308;19.096;2023-03-13T05:54:13;20.95;;;9.25;;
43184;SDS011;28803;52.308;19.096;2023-03-13T05:56:41;15.07;;;8.65;;
43184;SDS011;28803;52.308;19.096;2023-03-13T05:59:08;16.17;;;8.48;;
43184;SDS011;28803;52.308;19.096;2023-03-13T06:01:35;14.93;;;8.32;;
43184;SDS011;28803;52.308;19.096;2023-03-13T06:04:03;19.50;;;8.55;;
43184;SDS011;28803;52.308;19.096;2023-03-13T06:06:31;14.50;;;7.90;;
43184;SDS011;28803;52.308;19.096;2023-03-13T06:08:59;13.43;;;7.70;;
43184;SDS011;28803;52.308;19.096;2023-03-13T06:11:26;15.40;;;8.27;;
43184;SDS011;28803;52.308;19.096;2023-03-13T06:13:54;13.35;;;7.78;;
43184;SDS011;28803;52.308;19.096;2023-03-13T06:16:22;13.57;;;8.20;;
43184;SDS011;28803;52.308;19.096;2023-03-13T06:18:49;14.63;;;8.02;;
43184;SDS011;28803;52.308;19.096;2023-03-13T06:21:17;20.25;;;8.77;;
43184;SDS011;28803;52.308;19.096;2023-03-13T06:23:44;15.20;;;8.32;;
43184;SDS011;28803;52.308;19.096;2023-03-13T06:26:11;20.67;;;8.30;;
43184;SDS011;28803;52.308;19.096;2023-03-13T06:28:39;15.93;;;8.63;;
43184;SDS011;28803;52.308;19.096;2023-03-13T06:31:06;18.38;;;7.63;;
43184;SDS011;28803;52.308;19.096;2023-03-13T06:33:34;19.33;;;8.48;;
43184;SDS011;28803;52.308;19.096;2023-03-13T06:36:02;15.93;;;8.10;;
43184;SDS011;28803;52.308;19.096;2023-03-13T06:38:31;16.42;;;8.23;;
43184;SDS011;28803;52.308;19.096;2023-03-13T06:40:58;19.95;;;9.38;;
43184;SDS011;28803;52.308;19.096;2023-03-13T06:43:26;15.73;;;8.43;;
43184;SDS011;28803;52.308;19.096;2023-03-13T06:45:54;15.05;;;8.25;;
43184;SDS011;28803;52.308;19.096;2023-03-13T06:48:21;12.43;;;7.10;;
43184;SDS011;28803;52.308;19.096;2023-03-13T06:50:49;14.98;;;7.28;;
43184;SDS011;28803;52.308;19.096;2023-03-13T06:53:17;14.32;;;7.30;;
43184;SDS011;28803;52.308;19.096;2023-03-13T06:55:45;15.07;;;7.88;;
43184;SDS011;28803;52.308;19.096;2023-03-13T06:58:15;88.30;;;33.08;;
43184;SDS011;28803;52.308;19.096;2023-03-13T07:00:58;303.05;;;144.65;;
43184;SDS011;28803;52.308;19.096;2023-03-13T07:03:26;519.20;;;359.20;;
43184;SDS011;28803;52.308;19.096;2023-03-13T07:05:54;407.50;;;320.05;;
43184;SDS011;28803;52.308;19.096;2023-03-13T07:08:22;378.83;;;299.20;;
43184;SDS011;28803;52.308;19.096;2023-03-13T07:10:51;295.20;;;254.65;;
43184;SDS011;28803;52.308;19.096;2023-03-13T07:13:20;71.22;;;56.78;;
43184;SDS011;28803;52.308;19.096;2023-03-13T07:15:47;19.23;;;15.82;;
43184;SDS011;28803;52.308;19.096;2023-03-13T07:18:16;26.70;;;19.75;;
43184;SDS011;28803;52.308;19.096;2023-03-13T07:20:43;17.00;;;13.35;;
43184;SDS011;28803;52.308;19.096;2023-03-13T07:23:10;12.93;;;8.73;;
43184;SDS011;28803;52.308;19.096;2023-03-13T07:25:38;13.40;;;10.15;;
43184;SDS011;28803;52.308;19.096;2023-03-13T07:28:06;20.45;;;8.25;;
43184;SDS011;28803;52.308;19.096;2023-03-13T07:30:33;13.13;;;7.20;;
43184;SDS011;28803;52.308;19.096;2023-03-13T07:33:01;17.05;;;7.88;;
43184;SDS011;28803;52.308;19.096;2023-03-13T07:35:28;15.95;;;6.60;;
43184;SDS011;28803;52.308;19.096;2023-03-13T07:37:56;779.35;;;403.92;;
43184;SDS011;28803;52.308;19.096;2023-03-13T07:40:23;345.92;;;240.50;;
43184;SDS011;28803;52.308;19.096;2023-03-13T07:42:50;93.13;;;76.45;;
43184;SDS011;28803;52.308;19.096;2023-03-13T07:45:18;66.68;;;49.70;;
43184;SDS011;28803;52.308;19.096;2023-03-13T07:47:46;62.47;;;50.67;;
43184;SDS011;28803;52.308;19.096;2023-03-13T07:50:13;65.10;;;52.08;;
43184;SDS011;28803;52.308;19.096;2023-03-13T07:52:41;43.78;;;32.92;;
43184;SDS011;28803;52.308;19.096;2023-03-13T07:55:08;28.27;;;20.83;;
43184;SDS011;28803;52.308;19.096;2023-03-13T07:57:36;18.33;;;10.90;;
43184;SDS011;28803;52.308;19.096;2023-03-13T08:00:03;12.68;;;7.85;;
43184;SDS011;28803;52.308;19.096;2023-03-13T08:02:35;11.63;;;7.15;;
43184;SDS011;28803;52.308;19.096;2023-03-13T08:05:03;14.15;;;8.52;;
43184;SDS011;28803;52.308;19.096;2023-03-13T08:07:31;80.47;;;69.53;;
43184;SDS011;28803;52.308;19.096;2023-03-13T08:09:58;30.95;;;27.85;;
43184;SDS011;28803;52.308;19.096;2023-03-13T08:12:26;15.50;;;8.95;;
43184;SDS011;28803;52.308;19.096;2023-03-13T08:14:54;13.98;;;9.90;;
43184;SDS011;28803;52.308;19.096;2023-03-13T08:17:21;18.15;;;13.98;;
43184;SDS011;28803;52.308;19.096;2023-03-13T08:19:49;19.98;;;10.90;;
43184;SDS011;28803;52.308;19.096;2023-03-13T08:22:17;15.82;;;10.65;;
43184;SDS011;28803;52.308;19.096;2023-03-13T08:24:44;13.07;;;7.07;;
43184;SDS011;28803;52.308;19.096;2023-03-13T08:27:12;15.52;;;6.38;;
43184;SDS011;28803;52.308;19.096;2023-03-13T08:29:39;13.38;;;6.20;;
43184;SDS011;28803;52.308;19.096;2023-03-13T08:32:06;9.68;;;5.63;;
43184;SDS011;28803;52.308;19.096;2023-03-13T08:34:34;8.25;;;5.03;;
43184;SDS011;28803;52.308;19.096;2023-03-13T08:37:02;16.65;;;7.57;;
43184;SDS011;28803;52.308;19.096;2023-03-13T08:39:30;154.40;;;122.28;;
43184;SDS011;28803;52.308;19.096;2023-03-13T08:41:57;73.60;;;54.17;;
43184;SDS011;28803;52.308;19.096;2023-03-13T08:44:25;41.03;;;30.45;;
43184;SDS011;28803;52.308;19.096;2023-03-13T08:46:53;45.95;;;34.15;;
43184;SDS011;28803;52.308;19.096;2023-03-13T08:49:20;20.17;;;13.38;;
43184;SDS011;28803;52.308;19.096;2023-03-13T08:51:47;13.77;;;8.38;;
43184;SDS011;28803;52.308;19.096;2023-03-13T08:54:15;18.85;;;7.93;;
43184;SDS011;28803;52.308;19.096;2023-03-13T08:56:43;14.65;;;8.25;;
43184;SDS011;28803;52.308;19.096;2023-03-13T08:59:12;15.40;;;7.85;;
43184;SDS011;28803;52.308;19.096;2023-03-13T09:01:41;15.32;;;7.20;;
43184;SDS011;28803;52.308;19.096;2023-03-13T09:04:09;13.25;;;7.03;;
43184;SDS011;28803;52.308;19.096;2023-03-13T09:06:36;8.95;;;5.82;;
43184;SDS011;28803;52.308;19.096;2023-03-13T09:09:04;18.23;;;5.80;;
43184;SDS011;28803;52.308;19.096;2023-03-13T09:11:33;26.48;;;20.70;;
43184;SDS011;28803;52.308;19.096;2023-03-13T09:14:01;24.45;;;15.23;;
43184;SDS011;28803;52.308;19.096;2023-03-13T09:16:29;34.20;;;25.27;;
43184;SDS011;28803;52.308;19.096;2023-03-13T09:18:58;26.00;;;21.38;;
43184;SDS011;28803;52.308;19.096;2023-03-13T09:21:27;50.05;;;38.50;;
43184;SDS011;28803;52.308;19.096;2023-03-13T09:23:56;15.50;;;9.23;;
43184;SDS011;28803;52.308;19.096;2023-03-13T09:26:24;14.25;;;7.40;;
43184;SDS011;28803;52.308;19.096;2023-03-13T09:28:52;14.07;;;7.18;;
43184;SDS011;28803;52.308;19.096;2023-03-13T09:31:24;11.15;;;6.13;;
43184;SDS011;28803;52.308;19.096;2023-03-13T09:33:52;12.43;;;5.68;;
43184;SDS011;28803;52.308;19.096;2023-03-13T09:36:20;13.10;;;5.72;;
43184;SDS011;28803;52.308;19.096;2023-03-13T09:38:50;19.15;;;6.22;;
43184;SDS011;28803;52.308;19.096;2023-03-13T09:41:21;11.70;;;5.07;;
43184;SDS011;28803;52.308;19.096;2023-03-13T09:49:27;16.65;;;14.43;;
43184;SDS011;28803;52.308;19.096;2023-03-13T09:51:59;31.67;;;23.95;;
43184;SDS011;28803;52.308;19.096;2023-03-13T09:54:53;20.27;;;13.70;;
43184;SDS011;28803;52.308;19.096;2023-03-13T09:57:52;23.85;;;19.42;;
43184;SDS011;28803;52.308;19.096;2023-03-13T10:00:40;20.10;;;14.10;;
43184;SDS011;28803;52.308;19.096;2023-03-13T10:05:45;45.58;;;38.08;;
43184;SDS011;28803;52.308;19.096;2023-03-13T10:08:26;23.50;;;19.70;;
43184;SDS011;28803;52.308;19.096;2023-03-13T10:16:11;9.85;;;5.53;;
43184;SDS011;28803;52.308;19.096;2023-03-13T10:18:46;12.30;;;6.93;;
43184;SDS011;28803;52.308;19.096;2023-03-13T10:23:51;12.88;;;4.85;;
43184;SDS011;28803;52.308;19.096;2023-03-13T10:26:41;7.63;;;3.70;;
43184;SDS011;28803;52.308;19.096;2023-03-13T10:31:46;10.52;;;4.47;;
43184;SDS011;28803;52.308;19.096;2023-03-13T10:34:23;13.98;;;5.00;;
43184;SDS011;28803;52.308;19.096;2023-03-13T10:36:58;7.37;;;3.70;;
43184;SDS011;28803;52.308;19.096;2023-03-13T10:41:56;9.27;;;3.40;;
43184;SDS011;28803;52.308;19.096;2023-03-13T10:44:34;11.07;;;3.85;;
43184;SDS011;28803;52.308;19.096;2023-03-13T10:47:02;11.18;;;3.45;;
43184;SDS011;28803;52.308;19.096;2023-03-13T10:49:31;11.43;;;3.53;;
43184;SDS011;28803;52.308;19.096;2023-03-13T10:52:00;10.93;;;3.75;;
43184;SDS011;28803;52.308;19.096;2023-03-13T10:54:30;11.43;;;3.63;;
43184;SDS011;28803;52.308;19.096;2023-03-13T10:59:45;7.30;;;3.05;;
43184;SDS011;28803;52.308;19.096;2023-03-13T11:02:22;10.73;;;3.17;;
43184;SDS011;28803;52.308;19.096;2023-03-13T11:05:02;8.38;;;3.22;;
43184;SDS011;28803;52.308;19.096;2023-03-13T11:07:51;15.65;;;3.65;;
43184;SDS011;28803;52.308;19.096;2023-03-13T11:10:27;14.88;;;3.85;;
43184;SDS011;28803;52.308;19.096;2023-03-13T11:12:58;9.57;;;2.67;;
43184;SDS011;28803;52.308;19.096;2023-03-13T11:15:34;9.30;;;3.08;;
43184;SDS011;28803;52.308;19.096;2023-03-13T11:20:55;8.32;;;3.13;;
43184;SDS011;28803;52.308;19.096;2023-03-13T11:23:42;10.20;;;2.95;;
43184;SDS011;28803;52.308;19.096;2023-03-13T11:26:21;14.10;;;2.72;;
43184;SDS011;28803;52.308;19.096;2023-03-13T11:31:46;10.65;;;2.80;;
43184;SDS011;28803;52.308;19.096;2023-03-13T11:34:37;8.27;;;2.88;;
43184;SDS011;28803;52.308;19.096;2023-03-13T11:37:11;6.97;;;3.45;;
43184;SDS011;28803;52.308;19.096;2023-03-13T11:45:00;9.50;;;3.35;;
43184;SDS011;28803;52.308;19.096;2023-03-13T11:50:57;6.40;;;2.75;;
43184;SDS011;28803;52.308;19.096;2023-03-13T11:56:43;12.38;;;3.53;;
43184;SDS011;28803;52.308;19.096;2023-03-13T12:01:50;5.82;;;2.50;;
43184;SDS011;28803;52.308;19.096;2023-03-13T12:04:24;11.68;;;3.53;;
43184;SDS011;28803;52.308;19.096;2023-03-13T12:07:09;8.27;;;2.83;;
43184;SDS011;28803;52.308;19.096;2023-03-13T12:10:11;7.40;;;3.20;;
43184;SDS011;28803;52.308;19.096;2023-03-13T12:12:55;8.23;;;3.35;;
43184;SDS011;28803;52.308;19.096;2023-03-13T12:20:41;5.90;;;3.58;;
43184;SDS011;28803;52.308;19.096;2023-03-13T12:23:16;11.60;;;3.13;;
43184;SDS011;28803;52.308;19.096;2023-03-13T12:25:46;8.60;;;3.45;;
43184;SDS011;28803;52.308;19.096;2023-03-13T12:28:36;8.05;;;2.65;;
43184;SDS011;28803;52.308;19.096;2023-03-13T12:31:21;13.75;;;3.72;;
43184;SDS011;28803;52.308;19.096;2023-03-13T12:44:33;7.68;;;2.22;;
43184;SDS011;28803;52.308;19.096;2023-03-13T12:47:17;9.63;;;3.60;;
43184;SDS011;28803;52.308;19.096;2023-03-13T13:01:33;5.22;;;2.40;;
43184;SDS011;28803;52.308;19.096;2023-03-13T13:04:11;7.00;;;2.35;;
43184;SDS011;28803;52.308;19.096;2023-03-13T13:06:59;10.02;;;2.17;;
43184;SDS011;28803;52.308;19.096;2023-03-13T13:09:33;5.38;;;1.83;;
43184;SDS011;28803;52.308;19.096;2023-03-13T13:12:18;9.20;;;2.80;;
43184;SDS011;28803;52.308;19.096;2023-03-13T13:34:52;10.88;;;2.67;;
43184;SDS011;28803;52.308;19.096;2023-03-13T13:39:48;8.98;;;1.80;;
43184;SDS011;28803;52.308;19.096;2023-03-13T13:47:46;9.38;;;1.75;;
43184;SDS011;28803;52.308;19.096;2023-03-13T13:50:16;5.43;;;1.55;;
43184;SDS011;28803;52.308;19.096;2023-03-13T13:52:46;5.20;;;1.52;;
43184;SDS011;28803;52.308;19.096;2023-03-13T14:03:17;7.57;;;2.22;;
43184;SDS011;28803;52.308;19.096;2023-03-13T14:05:47;11.10;;;2.22;;
43184;SDS011;28803;52.308;19.096;2023-03-13T14:08:23;7.68;;;2.35;;
43184;SDS011;28803;52.308;19.096;2023-03-13T14:13:31;10.20;;;2.28;;
43184;SDS011;28803;52.308;19.096;2023-03-13T14:16:08;6.65;;;2.30;;
43184;SDS011;28803;52.308;19.096;2023-03-13T14:18:44;6.65;;;2.33;;
43184;SDS011;28803;52.308;19.096;2023-03-13T14:21:12;11.82;;;2.65;;
43184;SDS011;28803;52.308;19.096;2023-03-13T14:23:41;11.45;;;3.00;;
43184;SDS011;28803;52.308;19.096;2023-03-13T14:29:00;5.60;;;2.45;;
43184;SDS011;28803;52.308;19.096;2023-03-13T14:31:38;10.45;;;2.47;;
43184;SDS011;28803;52.308;19.096;2023-03-13T14:34:07;11.10;;;2.85;;
43184;SDS011;28803;52.308;19.096;2023-03-13T14:36:49;8.50;;;2.90;;
43184;SDS011;28803;52.308;19.096;2023-03-13T14:39:41;14.43;;;3.53;;
43184;SDS011;28803;52.308;19.096;2023-03-13T14:42:15;11.77;;;2.75;;
43184;SDS011;28803;52.308;19.096;2023-03-13T14:44:45;9.02;;;2.70;;
43184;SDS011;28803;52.308;19.096;2023-03-13T14:49:46;7.40;;;2.55;;
43184;SDS011;28803;52.308;19.096;2023-03-13T14:52:19;8.32;;;3.08;;
43184;SDS011;28803;52.308;19.096;2023-03-13T14:54:53;7.40;;;3.03;;
43184;SDS011;28803;52.308;19.096;2023-03-13T14:57:23;7.38;;;2.78;;
43184;SDS011;28803;52.308;19.096;2023-03-13T14:59:53;13.85;;;3.10;;
43184;SDS011;28803;52.308;19.096;2023-03-13T15:02:41;8.02;;;2.50;;
43184;SDS011;28803;52.308;19.096;2023-03-13T15:05:29;15.05;;;4.15;;
43184;SDS011;28803;52.308;19.096;2023-03-13T15:07:57;9.82;;;2.90;;
43184;SDS011;28803;52.308;19.096;2023-03-13T15:10:34;10.35;;;2.60;;
43184;SDS011;28803;52.308;19.096;2023-03-13T15:15:51;8.57;;;2.78;;
43184;SDS011;28803;52.308;19.096;2023-03-13T15:18:20;8.07;;;2.78;;
43184;SDS011;28803;52.308;19.096;2023-03-13T15:20:50;6.95;;;2.22;;
43184;SDS011;28803;52.308;19.096;2023-03-13T15:23:18;6.95;;;2.45;;
43184;SDS011;28803;52.308;19.096;2023-03-13T15:25:46;10.30;;;3.55;;
43184;SDS011;28803;52.308;19.096;2023-03-13T15:30:43;11.07;;;3.15;;
43184;SDS011;28803;52.308;19.096;2023-03-13T15:33:17;9.77;;;3.40;;
43184;SDS011;28803;52.308;19.096;2023-03-13T15:35:46;10.60;;;2.58;;
43184;SDS011;28803;52.308;19.096;2023-03-13T15:38:18;7.63;;;2.65;;
43184;SDS011;28803;52.308;19.096;2023-03-13T15:40:47;9.32;;;3.03;;
43184;SDS011;28803;52.308;19.096;2023-03-13T15:43:15;5.35;;;1.73;;
43184;SDS011;28803;52.308;19.096;2023-03-13T15:45:43;8.90;;;2.17;;
43184;SDS011;28803;52.308;19.096;2023-03-13T15:50:41;8.52;;;2.40;;
43184;SDS011;28803;52.308;19.096;2023-03-13T15:53:15;7.95;;;2.63;;
43184;SDS011;28803;52.308;19.096;2023-03-13T15:55:50;6.82;;;1.75;;
43184;SDS011;28803;52.308;19.096;2023-03-13T15:58:18;6.60;;;2.08;;
43184;SDS011;28803;52.308;19.096;2023-03-13T16:00:46;12.90;;;2.88;;
43184;SDS011;28803;52.308;19.096;2023-03-13T16:03:15;17.85;;;3.58;;
43184;SDS011;28803;52.308;19.096;2023-03-13T16:05:47;9.90;;;2.47;;
43184;SDS011;28803;52.308;19.096;2023-03-13T16:08:15;6.90;;;2.65;;
43184;SDS011;28803;52.308;19.096;2023-03-13T16:11:01;8.65;;;2.30;;
43184;SDS011;28803;52.308;19.096;2023-03-13T16:13:28;8.77;;;2.83;;
43184;SDS011;28803;52.308;19.096;2023-03-13T16:15:56;10.25;;;2.55;;
43184;SDS011;28803;52.308;19.096;2023-03-13T16:18:24;8.73;;;2.42;;
43184;SDS011;28803;52.308;19.096;2023-03-13T16:20:52;6.53;;;2.08;;
43184;SDS011;28803;52.308;19.096;2023-03-13T16:23:19;7.50;;;2.35;;
43184;SDS011;28803;52.308;19.096;2023-03-13T16:25:47;7.18;;;2.00;;
43184;SDS011;28803;52.308;19.096;2023-03-13T16:28:15;6.63;;;2.17;;
43184;SDS011;28803;52.308;19.096;2023-03-13T16:30:42;5.80;;;2.45;;
43184;SDS011;28803;52.308;19.096;2023-03-13T16:33:13;7.70;;;2.67;;
43184;SDS011;28803;52.308;19.096;2023-03-13T16:35:40;7.40;;;2.15;;
43184;SDS011;28803;52.308;19.096;2023-03-13T16:38:08;10.07;;;2.70;;
43184;SDS011;28803;52.308;19.096;2023-03-13T16:40:37;8.02;;;2.67;;
43184;SDS011;28803;52.308;19.096;2023-03-13T16:43:04;7.78;;;2.63;;
43184;SDS011;28803;52.308;19.096;2023-03-13T16:45:32;9.05;;;2.92;;
43184;SDS011;28803;52.308;19.096;2023-03-13T16:48:00;7.97;;;4.25;;